createdAt,value
2023-02-28T00:00:14.248Z,7.13
2023-02-28T00:02:42.594Z,11.47
2023-02-28T00:05:10.799Z,9.87
2023-02-28T00:07:38.266Z,8.73
2023-02-28T00:10:10.154Z,8.20
2023-02-28T00:12:37.637Z,8.90
2023-02-28T00:15:10.153Z,9.63
2023-02-28T00:17:37.688Z,10.75
2023-02-28T00:20:09.202Z,8.47
2023-02-28T00:22:36.370Z,7.70
2023-02-28T00:25:04.491Z,8.87
2023-02-28T00:27:31.821Z,8.70
2023-02-28T00:29:58.563Z,7.93
2023-02-28T00:32:25.418Z,9.73
2023-02-28T00:34:52.169Z,10.37
2023-02-28T00:37:18.917Z,10.77
2023-02-28T00:39:45.817Z,9.77
2023-02-28T00:42:12.566Z,8.15
2023-02-28T00:44:39.297Z,10.37
2023-02-28T00:47:06.214Z,9.13
2023-02-28T00:49:33.043Z,9.35
2023-02-28T00:51:59.960Z,9.33
2023-02-28T00:54:26.820Z,10.68
2023-02-28T00:56:53.552Z,8.18
2023-02-28T00:59:20.559Z,10.93
2023-02-28T01:01:47.555Z,9.37
2023-02-28T01:04:14.846Z,11.13
2023-02-28T01:06:41.820Z,9.43
2023-02-28T01:09:09.109Z,8.77
2023-02-28T01:11:36.204Z,10.40
2023-02-28T01:14:04.864Z,7.93
2023-02-28T01:16:32.015Z,8.90
2023-02-28T01:18:58.804Z,9.53
2023-02-28T01:21:26.161Z,8.90
2023-02-28T01:23:53.043Z,10.27
2023-02-28T01:26:23.573Z,10.70
2023-02-28T01:28:51.914Z,9.00
2023-02-28T01:31:19.775Z,10.57
2023-02-28T01:33:47.173Z,9.60
2023-02-28T01:36:18.978Z,9.87
2023-02-28T01:38:47.422Z,9.33
2023-02-28T01:41:21.589Z,8.27
2023-02-28T01:43:48.347Z,7.97
2023-02-28T01:46:15.846Z,10.93
2023-02-28T01:49:06.173Z,10.80
2023-02-28T01:51:46.612Z,8.43
2023-02-28T01:54:17.805Z,12.10
2023-02-28T01:56:50.069Z,10.83
2023-02-28T01:59:28.087Z,11.73
2023-02-28T02:01:55.919Z,10.10
2023-02-28T02:04:26.238Z,9.90
2023-02-28T02:06:53.223Z,11.40
2023-02-28T02:09:19.970Z,11.37
2023-02-28T02:11:47.839Z,9.90
2023-02-28T02:14:32.071Z,11.23
2023-02-28T02:17:16.379Z,11.70
2023-02-28T02:19:55.412Z,10.83
2023-02-28T02:22:52.974Z,11.30
2023-02-28T02:25:40.684Z,11.30
2023-02-28T02:28:37.260Z,10.70
2023-02-28T02:31:41.193Z,11.53
2023-02-28T02:34:29.309Z,10.07
2023-02-28T02:37:15.573Z,12.03
2023-02-28T02:40:11.568Z,11.10
2023-02-28T02:42:59.720Z,14.17
2023-02-28T02:45:36.872Z,10.83
2023-02-28T02:48:09.353Z,12.33
2023-02-28T02:50:50.359Z,10.80
2023-02-28T02:53:21.876Z,13.80
2023-02-28T02:55:55.265Z,9.37
2023-02-28T02:58:27.838Z,13.97
2023-02-28T03:00:59.265Z,12.52
2023-02-28T03:03:30.389Z,11.17
2023-02-28T03:05:59.469Z,11.83
2023-02-28T03:08:27.081Z,11.30
2023-02-28T03:10:59.411Z,11.57
2023-02-28T03:13:43.253Z,14.13
2023-02-28T03:16:28.512Z,14.63
2023-02-28T03:19:13.165Z,14.17
2023-02-28T03:22:10.572Z,15.13
2023-02-28T03:25:04.373Z,17.63
2023-02-28T03:27:40.231Z,13.70
2023-02-28T03:30:39.527Z,12.40
2023-02-28T03:33:29.942Z,12.73
2023-02-28T03:36:01.324Z,11.90
2023-02-28T03:38:43.697Z,11.80
2023-02-28T03:41:27.062Z,10.97
2023-02-28T03:44:07.689Z,13.30
2023-02-28T03:46:39.487Z,11.50
2023-02-28T03:49:23.859Z,13.93
2023-02-28T03:51:52.099Z,14.63
2023-02-28T03:54:30.700Z,14.27
2023-02-28T03:57:12.869Z,12.43
2023-02-28T03:59:46.039Z,11.87
2023-02-28T04:02:12.835Z,10.37
2023-02-28T04:04:39.707Z,14.60
2023-02-28T04:07:09.620Z,14.60
2023-02-28T04:09:36.439Z,20.50
2023-02-28T04:12:03.376Z,14.43
2023-02-28T04:14:30.231Z,13.83
2023-02-28T04:16:56.979Z,14.93
2023-02-28T04:19:23.754Z,16.10
2023-02-28T04:21:52.210Z,13.50
2023-02-28T04:24:24.440Z,13.00
2023-02-28T04:26:54.711Z,11.73
2023-02-28T04:29:25.021Z,12.10
2023-02-28T04:31:54.159Z,12.47
2023-02-28T04:34:22.128Z,15.50
2023-02-28T04:37:06.357Z,12.30
2023-02-28T04:39:39.006Z,17.00
2023-02-28T04:42:05.844Z,14.33
2023-02-28T04:44:32.824Z,13.27
2023-02-28T04:46:59.842Z,20.70
2023-02-28T04:49:26.777Z,17.13
2023-02-28T04:51:54.046Z,14.47
2023-02-28T04:54:21.123Z,13.40
2023-02-28T04:56:50.635Z,15.23
2023-02-28T04:59:17.526Z,14.37
2023-02-28T05:01:48.700Z,14.70
2023-02-28T05:04:15.769Z,17.97
2023-02-28T05:06:43.325Z,16.13
2023-02-28T05:09:12.418Z,14.37
2023-02-28T05:11:40.397Z,16.27
2023-02-28T05:14:13.211Z,13.57
2023-02-28T05:16:40.318Z,13.45
2023-02-28T05:19:07.107Z,17.13
2023-02-28T05:21:36.493Z,18.93
2023-02-28T05:24:06.645Z,17.60
2023-02-28T05:26:37.062Z,17.20
2023-02-28T05:29:03.878Z,17.57
2023-02-28T05:31:31.020Z,15.57
2023-02-28T05:33:58.080Z,16.20
2023-02-28T05:36:25.306Z,17.90
2023-02-28T05:38:52.089Z,15.73
2023-02-28T05:41:20.357Z,13.40
2023-02-28T05:43:48.223Z,14.93
2023-02-28T05:46:15.452Z,14.77
2023-02-28T05:48:43.228Z,11.50
2023-02-28T05:51:10.244Z,13.97
2023-02-28T05:53:37.170Z,12.77
2023-02-28T05:56:04.364Z,10.73
2023-02-28T05:58:31.694Z,13.07
2023-02-28T06:01:00.310Z,10.30
2023-02-28T06:03:28.070Z,11.07
2023-02-28T06:05:55.122Z,14.97
2023-02-28T06:08:22.083Z,14.30
2023-02-28T06:10:48.873Z,12.80
2023-02-28T06:13:16.174Z,10.90
2023-02-28T06:15:43.038Z,12.30
2023-02-28T06:18:09.828Z,10.07
2023-02-28T06:20:37.195Z,12.98
2023-02-28T06:23:04.569Z,11.07
2023-02-28T06:25:31.548Z,12.87
2023-02-28T06:27:58.315Z,12.23
2023-02-28T06:30:27.555Z,13.77
2023-02-28T06:32:55.332Z,10.57
2023-02-28T06:35:22.766Z,13.47
2023-02-28T06:37:49.599Z,13.35
2023-02-28T06:40:16.781Z,11.77
2023-02-28T06:42:44.122Z,12.25
2023-02-28T06:45:12.176Z,12.52
2023-02-28T06:47:41.321Z,14.15
2023-02-28T06:50:10.422Z,13.15
2023-02-28T06:52:38.305Z,12.30
2023-02-28T06:55:06.720Z,12.60
2023-02-28T06:57:35.454Z,13.80
2023-02-28T07:00:09.238Z,12.80
2023-02-28T07:02:37.264Z,12.95
2023-02-28T07:05:07.135Z,12.07
2023-02-28T07:07:34.262Z,11.82
2023-02-28T07:10:01.126Z,12.15
2023-02-28T07:12:27.888Z,12.50
2023-02-28T07:14:56.760Z,12.25
2023-02-28T07:17:23.546Z,13.07
2023-02-28T07:19:50.298Z,12.30
2023-02-28T07:22:17.044Z,12.52
2023-02-28T07:24:43.770Z,15.40
2023-02-28T07:27:10.616Z,15.73
2023-02-28T07:29:38.237Z,12.15
2023-02-28T07:32:05.260Z,11.70
2023-02-28T07:34:32.028Z,11.85
2023-02-28T07:36:58.919Z,11.60
2023-02-28T07:39:25.706Z,19.88
2023-02-28T07:41:52.421Z,14.57
2023-02-28T07:44:19.171Z,12.70
2023-02-28T07:46:45.914Z,13.25
2023-02-28T07:49:12.679Z,13.10
2023-02-28T07:51:39.428Z,11.30
2023-02-28T07:54:06.312Z,11.52
2023-02-28T07:56:33.219Z,13.20
2023-02-28T07:59:00.185Z,12.02
2023-02-28T08:01:26.984Z,13.57
2023-02-28T08:03:55.727Z,10.20
2023-02-28T08:06:24.736Z,13.07
2023-02-28T08:08:52.284Z,14.98
2023-02-28T08:11:19.415Z,12.60
2023-02-28T08:13:47.090Z,14.77
2023-02-28T08:16:18.514Z,11.52
2023-02-28T08:18:45.495Z,12.25
2023-02-28T08:21:12.243Z,13.40
2023-02-28T08:23:39.542Z,11.50
2023-02-28T08:26:06.347Z,23.13
2023-02-28T08:28:33.358Z,13.88
2023-02-28T08:31:00.178Z,11.77
2023-02-28T08:33:28.366Z,11.32
2023-02-28T08:35:56.621Z,12.10
2023-02-28T08:38:24.234Z,11.55
2023-02-28T08:40:51.164Z,16.52
2023-02-28T08:43:17.926Z,13.27
2023-02-28T08:45:44.760Z,10.27
2023-02-28T08:48:11.466Z,13.75
2023-02-28T08:50:38.169Z,11.88
2023-02-28T08:53:04.966Z,11.57
2023-02-28T08:55:31.867Z,11.43
2023-02-28T08:57:59.335Z,11.48
2023-02-28T09:00:26.196Z,14.68
2023-02-28T09:02:52.966Z,13.55
2023-02-28T09:05:19.806Z,12.63
2023-02-28T09:07:46.528Z,13.07
2023-02-28T09:10:13.443Z,13.52
2023-02-28T09:12:40.209Z,13.30
2023-02-28T09:15:07.785Z,13.15
2023-02-28T09:17:34.662Z,10.88
2023-02-28T09:20:01.392Z,14.23
2023-02-28T09:22:28.395Z,11.18
2023-02-28T09:24:55.080Z,14.82
2023-02-28T09:27:21.888Z,14.15
2023-02-28T09:29:48.778Z,13.25
2023-02-28T09:32:15.690Z,13.38
2023-02-28T09:34:42.482Z,11.85
2023-02-28T09:37:09.229Z,11.63
2023-02-28T09:39:35.981Z,12.25
2023-02-28T09:42:04.421Z,13.65
2023-02-28T09:44:45.723Z,11.27
2023-02-28T09:47:15.889Z,12.63
2023-02-28T09:49:47.201Z,12.27
2023-02-28T09:52:24.178Z,13.00
2023-02-28T09:54:51.082Z,12.65
2023-02-28T09:57:17.797Z,11.95
2023-02-28T10:00:09.110Z,11.20
2023-02-28T10:02:59.122Z,13.30
2023-02-28T10:05:32.580Z,12.02
2023-02-28T10:10:39.843Z,12.57
2023-02-28T10:13:17.033Z,11.52
2023-02-28T10:15:47.270Z,13.75
2023-02-28T10:18:17.568Z,14.57
2023-02-28T10:20:44.936Z,13.40
2023-02-28T10:23:38.418Z,12.98
2023-02-28T10:26:19.329Z,13.45
2023-02-28T10:28:46.389Z,12.25
2023-02-28T10:31:20.393Z,14.05
2023-02-28T10:33:48.436Z,16.42
2023-02-28T10:36:19.245Z,15.52
2023-02-28T10:38:47.746Z,12.95
2023-02-28T10:41:19.639Z,13.15
2023-02-28T10:43:46.414Z,12.02
2023-02-28T10:46:28.653Z,13.80
2023-02-28T10:49:04.195Z,13.00
2023-02-28T10:51:40.594Z,11.88
2023-02-28T10:54:17.241Z,11.27
2023-02-28T10:56:44.095Z,13.25
2023-02-28T10:59:31.919Z,14.57
2023-02-28T11:01:58.776Z,13.60
2023-02-28T11:04:30.301Z,12.90
2023-02-28T11:07:05.617Z,14.00
2023-02-28T11:09:36.413Z,11.73
2023-02-28T11:12:09.897Z,12.98
2023-02-28T11:17:23.702Z,13.75
2023-02-28T11:19:54.081Z,11.82
2023-02-28T11:22:25.545Z,12.40
2023-02-28T11:24:56.076Z,10.60
2023-02-28T11:27:31.902Z,11.73
2023-02-28T11:30:00.435Z,12.23
2023-02-28T11:32:30.020Z,13.77
2023-02-28T11:35:10.290Z,14.85
2023-02-28T11:37:38.214Z,12.18
2023-02-28T11:40:16.489Z,13.63
2023-02-28T11:42:54.884Z,13.52
2023-02-28T11:45:56.297Z,13.07
2023-02-28T11:48:47.659Z,13.63
2023-02-28T11:51:47.996Z,14.52
2023-02-28T11:55:04.758Z,12.68
2023-02-28T11:57:59.416Z,10.68
2023-02-28T12:00:37.117Z,11.60
2023-02-28T12:03:22.536Z,13.43
2023-02-28T12:06:00.575Z,11.15
2023-02-28T12:08:44.322Z,11.32
2023-02-28T12:13:51.343Z,11.98
2023-02-28T12:16:41.251Z,12.45
2023-02-28T12:19:17.857Z,13.38
2023-02-28T12:22:11.698Z,12.07
2023-02-28T12:24:47.233Z,12.57
2023-02-28T12:27:18.020Z,12.70
2023-02-28T12:29:52.277Z,11.57
2023-02-28T12:32:22.486Z,12.00
2023-02-28T12:34:53.277Z,11.63
2023-02-28T12:37:36.136Z,12.13
2023-02-28T12:40:17.174Z,10.65
2023-02-28T12:42:48.453Z,10.82
2023-02-28T12:45:25.554Z,11.32
2023-02-28T12:48:01.089Z,14.10
2023-02-28T12:50:30.961Z,11.88
2023-02-28T12:53:10.016Z,10.75
2023-02-28T12:56:20.270Z,10.82
2023-02-28T12:58:56.337Z,11.32
2023-02-28T13:01:50.441Z,11.40
2023-02-28T13:04:51.184Z,10.75
2023-02-28T13:07:26.594Z,9.13
2023-02-28T13:09:59.649Z,11.30
2023-02-28T13:12:27.808Z,12.18
2023-02-28T13:15:20.151Z,9.38
2023-02-28T13:17:50.619Z,12.05
2023-02-28T13:20:24.231Z,12.20
2023-02-28T13:22:53.731Z,10.32
2023-02-28T13:25:23.462Z,10.82
2023-02-28T13:27:57.326Z,12.25
2023-02-28T13:31:00.532Z,11.20
2023-02-28T13:33:30.974Z,10.97
2023-02-28T13:36:18.401Z,10.43
2023-02-28T13:38:56.465Z,9.85
2023-02-28T13:41:32.209Z,11.88
2023-02-28T13:44:17.115Z,9.70
2023-02-28T13:46:50.070Z,9.38
2023-02-28T13:49:34.964Z,9.93
2023-02-28T13:52:07.781Z,9.65
2023-02-28T13:55:14.404Z,12.50
2023-02-28T13:58:10.127Z,10.55
2023-02-28T14:00:43.559Z,10.35
2023-02-28T14:05:44.204Z,10.75
2023-02-28T14:08:19.154Z,9.20
2023-02-28T14:10:49.475Z,9.55
2023-02-28T14:13:48.186Z,9.65
2023-02-28T14:16:24.714Z,10.38
2023-02-28T14:19:02.562Z,9.35
2023-02-28T14:21:31.807Z,10.73
2023-02-28T14:24:35.402Z,11.02
2023-02-28T14:27:05.129Z,11.65
2023-02-28T14:29:44.378Z,11.48
2023-02-28T14:32:14.067Z,11.43
2023-02-28T14:35:22.972Z,9.80
2023-02-28T14:37:50.784Z,10.55
2023-02-28T14:40:30.495Z,9.23
2023-02-28T14:43:03.792Z,9.25
2023-02-28T14:45:33.169Z,10.50
2023-02-28T14:48:01.280Z,12.32
2023-02-28T14:50:32.555Z,12.77
2023-02-28T14:52:59.884Z,11.05
2023-02-28T14:55:32.205Z,10.95
2023-02-28T14:58:05.082Z,12.25
2023-02-28T15:00:38.418Z,10.88
2023-02-28T15:03:24.910Z,12.50
2023-02-28T15:06:03.488Z,11.43
2023-02-28T15:08:38.254Z,16.65
2023-02-28T15:11:17.365Z,10.98
2023-02-28T15:13:58.258Z,11.95
2023-02-28T15:16:36.104Z,12.57
2023-02-28T15:19:07.483Z,11.25
2023-02-28T15:21:42.405Z,15.02
2023-02-28T15:24:25.487Z,11.93
2023-02-28T15:26:56.527Z,14.18
2023-02-28T15:29:25.856Z,13.77
2023-02-28T15:32:05.395Z,11.50
2023-02-28T15:34:44.753Z,13.35
2023-02-28T15:37:33.586Z,12.88
2023-02-28T15:40:14.263Z,12.73
2023-02-28T15:42:41.066Z,14.00
2023-02-28T15:45:41.171Z,14.48
2023-02-28T15:48:40.520Z,13.55
2023-02-28T15:51:13.590Z,13.98
2023-02-28T15:53:56.982Z,11.27
2023-02-28T15:56:26.887Z,13.68
2023-02-28T15:58:58.797Z,14.02
2023-02-28T16:01:29.812Z,15.27
2023-02-28T16:04:06.942Z,12.80
2023-02-28T16:06:35.110Z,14.23
2023-02-28T16:09:03.140Z,14.45
2023-02-28T16:11:31.549Z,15.15
2023-02-28T16:13:58.941Z,13.48
2023-02-28T16:16:27.447Z,15.93
2023-02-28T16:18:55.110Z,14.93
2023-02-28T16:21:22.147Z,12.60
2023-02-28T16:23:48.834Z,13.80
2023-02-28T16:26:23.874Z,17.85
2023-02-28T16:28:51.876Z,14.07
2023-02-28T16:31:18.986Z,15.38
2023-02-28T16:33:46.553Z,14.70
2023-02-28T16:36:18.900Z,15.27
2023-02-28T16:38:45.772Z,13.43
2023-02-28T16:41:21.529Z,16.98
2023-02-28T16:43:50.837Z,17.58
2023-02-28T16:46:18.275Z,19.25
2023-02-28T16:48:46.312Z,15.50
2023-02-28T16:51:16.974Z,16.92
2023-02-28T16:53:45.248Z,18.35
2023-02-28T16:56:20.072Z,14.93
2023-02-28T16:58:47.570Z,16.73
2023-02-28T17:01:15.521Z,16.45
2023-02-28T17:03:43.114Z,16.40
2023-02-28T17:06:23.365Z,19.20
2023-02-28T17:08:51.274Z,18.15
2023-02-28T17:11:19.164Z,16.67
2023-02-28T17:13:46.717Z,16.50
2023-02-28T17:16:35.491Z,18.88
2023-02-28T17:19:07.253Z,17.90
2023-02-28T17:21:35.128Z,20.60
2023-02-28T17:24:02.014Z,18.88
2023-02-28T17:26:29.483Z,18.70
2023-02-28T17:28:57.901Z,16.63
2023-02-28T17:31:26.891Z,17.27
2023-02-28T17:33:55.353Z,18.15
2023-02-28T17:36:27.185Z,19.85
2023-02-28T17:38:56.075Z,18.17
2023-02-28T17:41:25.598Z,16.55
2023-02-28T17:43:52.654Z,21.52
2023-02-28T17:46:25.399Z,18.45
2023-02-28T17:48:54.307Z,19.73
2023-02-28T17:51:22.773Z,16.95
2023-02-28T17:53:50.061Z,21.67
2023-02-28T17:56:24.063Z,19.35
2023-02-28T17:58:56.102Z,18.80
2023-02-28T18:01:25.339Z,21.05
2023-02-28T18:03:52.153Z,19.08
2023-02-28T18:06:28.612Z,22.10
2023-02-28T18:08:55.785Z,23.08
2023-02-28T18:11:24.249Z,19.83
2023-02-28T18:13:53.524Z,17.83
2023-02-28T18:16:22.715Z,19.55
2023-02-28T18:18:49.937Z,19.60
2023-02-28T18:21:17.772Z,20.70
2023-02-28T18:23:48.583Z,21.40
2023-02-28T18:26:17.086Z,19.40
2023-02-28T18:28:44.624Z,20.25
2023-02-28T18:31:20.574Z,23.65
2023-02-28T18:33:51.657Z,22.67
2023-02-28T18:36:20.620Z,21.02
2023-02-28T18:38:48.738Z,21.90
2023-02-28T18:41:15.626Z,24.70
2023-02-28T18:43:42.854Z,26.40
2023-02-28T18:46:12.867Z,25.13
2023-02-28T18:48:40.444Z,22.55
2023-02-28T18:51:12.551Z,27.08
2023-02-28T18:53:40.694Z,20.98
2023-02-28T18:56:09.247Z,22.58
2023-02-28T18:58:36.128Z,25.45
2023-02-28T19:01:04.699Z,24.33
2023-02-28T19:03:31.669Z,20.70
2023-02-28T19:06:00.311Z,21.83
2023-02-28T19:08:27.425Z,18.50
2023-02-28T19:10:54.158Z,21.30
2023-02-28T19:13:20.941Z,21.70
2023-02-28T19:15:48.125Z,22.98
2023-02-28T19:18:15.111Z,19.27
2023-02-28T19:20:41.840Z,19.80
2023-02-28T19:23:11.634Z,22.38
2023-02-28T19:25:42.307Z,22.50
2023-02-28T19:28:09.129Z,25.25
2023-02-28T19:30:35.918Z,19.40
2023-02-28T19:33:02.944Z,22.70
2023-02-28T19:35:29.816Z,20.23
2023-02-28T19:37:58.253Z,20.90
2023-02-28T19:40:25.668Z,23.60
2023-02-28T19:42:52.388Z,21.48
2023-02-28T19:45:19.170Z,24.02
2023-02-28T19:47:45.906Z,26.35
2023-02-28T19:50:12.617Z,20.85
2023-02-28T19:52:39.422Z,20.95
2023-02-28T19:55:06.527Z,22.67
2023-02-28T19:57:33.395Z,20.55
2023-02-28T20:00:00.238Z,25.27
2023-02-28T20:02:26.966Z,20.13
2023-02-28T20:04:54.807Z,23.27
2023-02-28T20:07:21.715Z,24.08
2023-02-28T20:09:48.577Z,23.45
2023-02-28T20:12:24.066Z,25.15
2023-02-28T20:14:51.672Z,25.17
2023-02-28T20:17:18.600Z,23.67
2023-02-28T20:19:46.637Z,26.67
2023-02-28T20:22:13.416Z,24.20
2023-02-28T20:24:40.149Z,24.80
2023-02-28T20:27:07.053Z,24.85
2023-02-28T20:29:34.630Z,25.55
2023-02-28T20:32:01.593Z,20.63
2023-02-28T20:34:28.481Z,20.63
2023-02-28T20:36:56.569Z,22.42
2023-02-28T20:39:23.822Z,25.17
2023-02-28T20:41:50.820Z,28.85
2023-02-28T20:44:19.316Z,20.95
2023-02-28T20:46:46.208Z,23.13
2023-02-28T20:49:13.382Z,23.03
2023-02-28T20:51:42.215Z,21.42
2023-02-28T20:54:11.697Z,25.23
2023-02-28T20:56:38.529Z,22.38
2023-02-28T20:59:05.624Z,21.98
2023-02-28T21:01:32.814Z,22.88
2023-02-28T21:04:06.508Z,21.83
2023-02-28T21:06:36.528Z,23.20
2023-02-28T21:09:06.059Z,22.77
2023-02-28T21:11:34.258Z,24.08
2023-02-28T21:14:11.064Z,22.77
2023-02-28T21:16:38.344Z,22.13
2023-02-28T21:19:05.294Z,25.20
2023-02-28T21:21:35.203Z,23.75
2023-02-28T21:24:02.117Z,21.33
2023-02-28T21:26:29.251Z,26.25
2023-02-28T21:29:01.678Z,26.08
2023-02-28T21:31:31.611Z,25.85
2023-02-28T21:33:59.756Z,24.60
2023-02-28T21:36:35.417Z,24.77
2023-02-28T21:39:10.051Z,24.53
2023-02-28T21:41:37.131Z,24.98
2023-02-28T21:44:04.220Z,29.90
2023-02-28T21:46:31.576Z,27.58
2023-02-28T21:48:59.036Z,30.17
2023-02-28T21:51:28.461Z,29.98
2023-02-28T21:53:56.770Z,24.88
2023-02-28T21:56:26.064Z,29.02
2023-02-28T21:59:00.237Z,24.80
2023-02-28T22:01:34.548Z,25.42
2023-02-28T22:04:03.441Z,25.33
2023-02-28T22:06:36.581Z,30.23
2023-02-28T22:11:34.931Z,27.27
2023-02-28T22:14:02.102Z,24.65
2023-02-28T22:16:33.218Z,25.58
2023-02-28T22:19:07.423Z,29.40
2023-02-28T22:21:36.047Z,29.77
2023-02-28T22:24:03.580Z,35.97
2023-02-28T22:26:30.938Z,29.07
2023-02-28T22:28:58.046Z,28.20
2023-02-28T22:31:30.573Z,31.58
2023-02-28T22:34:01.276Z,39.90
2023-02-28T22:36:28.757Z,42.25
2023-02-28T22:38:57.202Z,29.70
2023-02-28T22:41:24.618Z,27.77
2023-02-28T22:43:56.750Z,33.20
2023-02-28T22:46:24.607Z,30.13
2023-02-28T22:48:51.863Z,29.52
2023-02-28T22:51:21.564Z,28.88
2023-02-28T22:53:50.202Z,26.63
2023-02-28T22:56:19.364Z,29.52
2023-02-28T22:58:50.531Z,33.58
2023-02-28T23:01:18.460Z,25.35
2023-02-28T23:03:45.263Z,25.70
2023-02-28T23:06:19.491Z,27.15
2023-02-28T23:08:46.339Z,28.15
2023-02-28T23:11:19.981Z,29.53
2023-02-28T23:13:58.203Z,32.55
2023-02-28T23:16:35.640Z,33.87
2023-02-28T23:19:05.142Z,33.83
2023-02-28T23:21:32.142Z,38.03
2023-02-28T23:24:02.627Z,32.30
2023-02-28T23:26:31.589Z,31.73
2023-02-28T23:28:59.309Z,30.90
2023-02-28T23:31:26.138Z,30.53
2023-02-28T23:33:52.887Z,24.63
2023-02-28T23:36:19.870Z,25.80
2023-02-28T23:38:48.407Z,27.60
2023-02-28T23:41:15.875Z,32.07
2023-02-28T23:43:42.871Z,29.57
2023-02-28T23:46:11.729Z,32.13
2023-02-28T23:48:39.877Z,28.30
2023-02-28T23:51:16.813Z,24.07
2023-02-28T23:53:49.256Z,24.87
2023-02-28T23:56:19.487Z,26.35
2023-02-28T23:58:46.815Z,29.00
